createdAt,value
2023-04-01T00:00:58.144Z,8.80
2023-04-01T00:03:28.728Z,8.80
2023-04-01T00:05:57.296Z,8.80
2023-04-01T00:08:25.906Z,8.80
2023-04-01T00:10:54.192Z,8.80
2023-04-01T00:13:22.709Z,8.80
2023-04-01T00:15:51.202Z,8.70
2023-04-01T00:18:19.325Z,8.60
2023-04-01T00:20:50.444Z,8.70
2023-04-01T00:23:19.295Z,8.70
2023-04-01T00:25:49.222Z,8.70
2023-04-01T00:28:18.035Z,8.70
2023-04-01T00:30:46.791Z,8.70
2023-04-01T00:33:15.103Z,8.70
2023-04-01T00:35:43.254Z,8.90
2023-04-01T00:38:13.422Z,8.80
2023-04-01T00:40:43.187Z,8.70
2023-04-01T00:43:14.578Z,8.70
2023-04-01T00:45:44.514Z,8.70
2023-04-01T00:48:16.090Z,8.70
2023-04-01T00:50:47.772Z,8.60
2023-04-01T00:53:18.028Z,8.60
2023-04-01T00:55:52.513Z,8.60
2023-04-01T00:58:23.982Z,8.50
2023-04-01T01:00:53.481Z,8.60
2023-04-01T01:03:21.696Z,8.60
2023-04-01T01:06:10.773Z,8.70
2023-04-01T01:09:08.585Z,8.70
2023-04-01T01:11:43.684Z,8.80
2023-04-01T01:14:26.998Z,8.80
2023-04-01T01:17:01.078Z,8.80
2023-04-01T01:19:54.878Z,8.90
2023-04-01T01:22:45.797Z,8.80
2023-04-01T01:25:34.181Z,8.80
2023-04-01T01:28:19.906Z,8.80
2023-04-01T01:30:59.317Z,8.80
2023-04-01T01:33:43.358Z,8.90
2023-04-01T01:36:16.284Z,8.80
2023-04-01T01:38:45.087Z,8.80
2023-04-01T01:41:16.103Z,8.80
2023-04-01T01:43:48.252Z,8.80
2023-04-01T01:46:21.580Z,8.80
2023-04-01T01:48:51.627Z,8.80
2023-04-01T01:51:22.591Z,8.90
2023-04-01T01:53:50.820Z,8.90
2023-04-01T01:56:22.773Z,8.90
2023-04-01T01:58:54.094Z,9.00
2023-04-01T02:01:26.650Z,9.00
2023-04-01T02:03:56.268Z,9.20
2023-04-01T02:06:29.952Z,9.20
2023-04-01T02:09:01.997Z,9.30
2023-04-01T02:11:33.154Z,9.30
2023-04-01T02:14:04.855Z,9.30
2023-04-01T02:16:38.309Z,9.30
2023-04-01T02:19:08.477Z,9.20
2023-04-01T02:21:39.501Z,9.20
2023-04-01T02:24:12.112Z,9.20
2023-04-01T02:26:41.154Z,9.30
2023-04-01T02:29:11.374Z,9.20
2023-04-01T02:31:39.609Z,9.00
2023-04-01T02:34:07.867Z,8.90
2023-04-01T02:36:39.052Z,8.80
2023-04-01T02:39:07.907Z,8.80
2023-04-01T02:41:41.347Z,8.80
2023-04-01T02:44:09.917Z,8.80
2023-04-01T02:46:38.908Z,8.70
2023-04-01T02:49:08.158Z,8.70
2023-04-01T02:51:40.683Z,8.80
2023-04-01T02:54:08.854Z,8.80
2023-04-01T02:56:37.096Z,8.70
2023-04-01T02:59:05.571Z,8.80
2023-04-01T03:01:33.854Z,8.70
2023-04-01T03:04:01.999Z,8.70
2023-04-01T03:06:30.096Z,8.60
2023-04-01T03:08:59.600Z,8.60
2023-04-01T03:11:27.937Z,8.50
2023-04-01T03:13:56.156Z,8.50
2023-04-01T03:16:24.418Z,8.50
2023-04-01T03:18:53.736Z,8.40
2023-04-01T03:21:24.111Z,8.50
2023-04-01T03:23:52.617Z,8.50
2023-04-01T03:26:22.561Z,8.40
2023-04-01T03:28:50.943Z,8.40
2023-04-01T03:31:19.730Z,8.40
2023-04-01T03:33:49.179Z,8.30
2023-04-01T03:36:17.442Z,8.30
2023-04-01T03:38:46.368Z,8.30
2023-04-01T03:41:15.595Z,8.30
2023-04-01T03:43:46.093Z,8.20
2023-04-01T03:46:18.663Z,8.20
2023-04-01T03:48:46.980Z,8.20
2023-04-01T03:51:15.070Z,8.20
2023-04-01T03:53:43.193Z,8.20
2023-04-01T03:56:12.054Z,8.10
2023-04-01T03:58:40.854Z,8.10
2023-04-01T04:01:18.884Z,8.10
2023-04-01T04:03:47.363Z,8.10
2023-04-01T04:06:16.045Z,8.10
2023-04-01T04:08:44.252Z,8.00
2023-04-01T04:11:12.658Z,8.00
2023-04-01T04:13:40.773Z,8.00
2023-04-01T04:16:09.588Z,8.10
2023-04-01T04:18:39.200Z,8.10
2023-04-01T04:21:07.688Z,8.10
2023-04-01T04:23:35.877Z,8.10
2023-04-01T04:26:06.791Z,8.20
2023-04-01T04:28:35.372Z,8.20
2023-04-01T04:31:05.917Z,8.20
2023-04-01T04:33:34.446Z,8.30
2023-04-01T04:36:05.009Z,8.30
2023-04-01T04:38:33.211Z,8.40
2023-04-01T04:41:01.383Z,8.40
2023-04-01T04:43:29.549Z,8.40
2023-04-01T04:45:57.645Z,8.30
2023-04-01T04:48:25.706Z,8.30
2023-04-01T04:50:54.011Z,8.30
2023-04-01T04:53:23.514Z,8.30
2023-04-01T04:55:52.787Z,8.30
2023-04-01T04:58:21.452Z,8.30
2023-04-01T05:00:49.833Z,8.30
2023-04-01T05:03:18.166Z,8.40
2023-04-01T05:05:52.306Z,8.40
2023-04-01T05:08:20.479Z,8.40
2023-04-01T05:10:50.028Z,8.40
2023-04-01T05:13:18.213Z,8.50
2023-04-01T05:15:46.377Z,8.50
2023-04-01T05:18:14.496Z,8.50
2023-04-01T05:20:48.968Z,8.60
2023-04-01T05:23:17.192Z,8.60
2023-04-01T05:25:46.389Z,8.70
2023-04-01T05:28:17.044Z,8.60
2023-04-01T05:30:45.575Z,8.70
2023-04-01T05:33:15.025Z,8.70
2023-04-01T05:35:43.365Z,8.70
2023-04-01T05:38:11.575Z,8.80
2023-04-01T05:40:39.747Z,8.80
2023-04-01T05:43:07.914Z,8.80
2023-04-01T05:45:37.906Z,8.80
2023-04-01T05:48:06.719Z,8.80
2023-04-01T05:50:34.877Z,8.80
2023-04-01T05:53:02.984Z,8.80
2023-04-01T05:55:31.338Z,8.90
2023-04-01T05:57:59.830Z,8.90
2023-04-01T06:00:28.000Z,8.90
2023-04-01T06:03:00.101Z,8.90
2023-04-01T06:05:31.334Z,9.00
2023-04-01T06:08:03.165Z,9.00
2023-04-01T06:10:43.325Z,9.00
2023-04-01T06:13:18.671Z,9.10
2023-04-01T06:15:56.060Z,9.10
2023-04-01T06:18:51.112Z,9.10
2023-04-01T06:21:56.117Z,9.10
2023-04-01T06:24:42.640Z,9.10
2023-04-01T06:27:22.862Z,9.20
2023-04-01T06:30:01.142Z,9.20
2023-04-01T06:32:57.538Z,9.20
2023-04-01T06:35:46.107Z,9.30
2023-04-01T06:38:23.760Z,9.20
2023-04-01T06:41:31.116Z,9.30
2023-04-01T06:44:09.094Z,9.30
2023-04-01T06:46:44.954Z,9.30
2023-04-01T06:49:43.419Z,9.30
2023-04-01T06:52:22.032Z,9.30
2023-04-01T06:54:54.300Z,9.30
2023-04-01T06:57:30.603Z,9.30
2023-04-01T07:00:02.000Z,9.40
2023-04-01T07:02:36.361Z,9.50
2023-04-01T07:05:06.154Z,9.50
2023-04-01T07:07:42.435Z,9.60
2023-04-01T07:10:19.230Z,9.70
2023-04-01T07:12:51.239Z,9.70
2023-04-01T07:15:23.146Z,9.80
2023-04-01T07:17:57.830Z,9.80
2023-04-01T07:20:29.628Z,9.80
2023-04-01T07:23:01.517Z,9.80
2023-04-01T07:25:33.774Z,9.80
2023-04-01T07:28:05.842Z,9.90
2023-04-01T07:30:47.052Z,10.00
2023-04-01T07:33:18.836Z,10.10
2023-04-01T07:35:54.798Z,10.10
2023-04-01T07:38:33.079Z,10.00
2023-04-01T07:41:11.741Z,10.10
2023-04-01T07:43:56.362Z,10.00
2023-04-01T07:46:41.164Z,10.20
2023-04-01T07:49:14.937Z,10.30
2023-04-01T07:51:50.242Z,10.20
2023-04-01T07:54:24.849Z,10.20
2023-04-01T07:57:00.970Z,10.30
2023-04-01T07:59:35.895Z,10.20
2023-04-01T08:02:12.672Z,10.20
2023-04-01T08:04:57.398Z,10.00
2023-04-01T08:07:27.903Z,10.10
2023-04-01T08:10:05.598Z,9.90
2023-04-01T08:12:41.232Z,9.90
2023-04-01T08:15:17.584Z,9.90
2023-04-01T08:17:55.321Z,9.90
2023-04-01T08:20:31.311Z,9.90
2023-04-01T08:23:03.928Z,9.90
2023-04-01T08:25:36.181Z,9.80
2023-04-01T08:28:15.459Z,9.90
2023-04-01T08:30:48.329Z,9.90
2023-04-01T08:33:22.078Z,9.80
2023-04-01T08:35:56.999Z,9.80
2023-04-01T08:38:31.728Z,9.70
2023-04-01T08:41:35.271Z,9.60
2023-04-01T08:44:36.542Z,9.60
2023-04-01T08:47:33.236Z,9.60
2023-04-01T08:50:39.756Z,9.70
2023-04-01T08:53:18.413Z,9.70
2023-04-01T08:55:56.999Z,9.80
2023-04-01T08:58:55.051Z,9.90
2023-04-01T09:01:34.836Z,9.90
2023-04-01T09:04:25.883Z,10.00
2023-04-01T09:07:06.467Z,10.10
2023-04-01T09:10:23.816Z,10.20
2023-04-01T09:13:11.995Z,10.20
2023-04-01T09:15:56.222Z,10.30
2023-04-01T09:18:56.479Z,10.30
2023-04-01T09:21:48.630Z,10.30
2023-04-01T09:24:35.146Z,10.50
2023-04-01T09:27:07.203Z,10.40
2023-04-01T09:30:10.178Z,10.40
2023-04-01T09:33:04.367Z,10.40
2023-04-01T09:35:42.803Z,10.40
2023-04-01T09:38:23.692Z,10.40
2023-04-01T09:40:58.414Z,10.40
2023-04-01T09:43:46.455Z,10.30
2023-04-01T09:46:23.049Z,10.30
2023-04-01T09:49:41.535Z,10.30
2023-04-01T09:52:23.121Z,10.20
2023-04-01T09:55:08.815Z,10.30
2023-04-01T09:58:07.570Z,10.20
2023-04-01T10:01:09.967Z,10.10
2023-04-01T10:04:16.700Z,10.10
2023-04-01T10:07:35.013Z,10.20
2023-04-01T10:10:36.062Z,10.30
2023-04-01T10:13:36.699Z,10.20
2023-04-01T10:16:36.518Z,10.30
2023-04-01T10:19:39.188Z,10.20
2023-04-01T10:22:45.883Z,10.30
2023-04-01T10:26:01.675Z,10.30
2023-04-01T10:28:55.057Z,10.30
2023-04-01T10:32:16.757Z,10.30
2023-04-01T10:35:11.904Z,10.30
2023-04-01T10:38:16.263Z,10.50
2023-04-01T10:41:29.656Z,10.50
2023-04-01T10:44:21.644Z,10.40
2023-04-01T10:47:34.668Z,10.20
2023-04-01T10:50:26.151Z,10.20
2023-04-01T10:53:28.691Z,10.10
2023-04-01T10:56:15.178Z,9.80
2023-04-01T10:59:22.673Z,9.80
2023-04-01T11:02:22.687Z,9.80
2023-04-01T11:05:35.894Z,9.70
2023-04-01T11:08:44.696Z,9.80
2023-04-01T11:11:48.798Z,9.80
2023-04-01T11:14:46.064Z,9.80
2023-04-01T11:17:51.027Z,9.70
2023-04-01T11:20:53.459Z,9.70
2023-04-01T11:23:36.031Z,9.80
2023-04-01T11:26:23.191Z,9.80
2023-04-01T11:29:17.964Z,9.80
2023-04-01T11:32:04.762Z,9.80
2023-04-01T11:34:56.360Z,9.80
2023-04-01T11:37:35.150Z,9.70
2023-04-01T11:40:13.364Z,9.40
2023-04-01T11:42:51.683Z,9.30
2023-04-01T11:45:35.274Z,9.30
2023-04-01T11:48:27.249Z,9.20
2023-04-01T11:51:27.778Z,9.20
2023-04-01T11:54:05.751Z,9.20
2023-04-01T11:56:52.189Z,9.20
2023-04-01T11:59:41.553Z,9.10
2023-04-01T12:02:20.708Z,9.20
2023-04-01T12:05:23.012Z,9.20
2023-04-01T12:08:01.407Z,9.30
2023-04-01T12:10:36.865Z,9.40
2023-04-01T12:13:09.743Z,9.60
2023-04-01T12:15:54.575Z,9.70
2023-04-01T12:18:29.039Z,9.70
2023-04-01T12:21:04.807Z,9.80
2023-04-01T12:24:09.026Z,10.00
2023-04-01T12:27:18.711Z,10.20
2023-04-01T12:30:46.734Z,10.20
2023-04-01T12:33:33.665Z,10.20
2023-04-01T12:36:13.020Z,10.30
2023-04-01T12:38:50.689Z,10.30
2023-04-01T12:41:28.957Z,10.30
2023-04-01T12:44:38.692Z,10.40
2023-04-01T12:47:32.781Z,10.50
2023-04-01T12:50:40.794Z,10.50
2023-04-01T12:53:28.929Z,10.70
2023-04-01T12:56:05.962Z,10.70
2023-04-01T12:59:11.091Z,10.70
2023-04-01T13:02:03.628Z,10.80
2023-04-01T13:04:58.327Z,10.70
2023-04-01T13:07:47.434Z,10.70
2023-04-01T13:10:26.702Z,10.70
2023-04-01T13:13:33.177Z,10.70
2023-04-01T13:16:05.936Z,10.70
2023-04-01T13:18:44.264Z,10.70
2023-04-01T13:21:21.124Z,10.90
2023-04-01T13:24:03.824Z,10.90
2023-04-01T13:26:39.017Z,11.10
2023-04-01T13:29:13.746Z,11.20
2023-04-01T13:31:53.601Z,11.00
2023-04-01T13:34:37.325Z,11.20
2023-04-01T13:37:35.570Z,11.20
2023-04-01T13:40:21.299Z,11.30
2023-04-01T13:42:55.403Z,11.30
2023-04-01T13:45:26.950Z,11.30
2023-04-01T13:48:33.733Z,11.50
2023-04-01T13:51:25.099Z,11.70
2023-04-01T13:54:29.704Z,11.80
2023-04-01T13:57:16.617Z,12.10
2023-04-01T14:00:05.529Z,12.40
2023-04-01T14:03:11.726Z,12.50
2023-04-01T14:05:55.769Z,12.70
2023-04-01T14:08:38.193Z,12.80
2023-04-01T14:11:17.381Z,13.10
2023-04-01T14:13:58.743Z,13.10
2023-04-01T14:17:01.960Z,13.10
2023-04-01T14:19:44.731Z,13.30
2023-04-01T14:22:24.340Z,13.70
2023-04-01T14:25:13.080Z,13.60
2023-04-01T14:27:48.475Z,13.60
2023-04-01T14:30:43.218Z,13.50
2023-04-01T14:33:27.949Z,13.40
2023-04-01T14:36:14.274Z,13.30
2023-04-01T14:38:56.030Z,12.90
2023-04-01T14:41:40.394Z,12.60
2023-04-01T14:44:26.774Z,12.00
2023-04-01T14:47:24.347Z,11.50
2023-04-01T14:49:55.147Z,10.80
2023-04-01T14:52:29.831Z,10.90
2023-04-01T14:55:00.434Z,11.30
2023-04-01T14:57:31.480Z,11.60
2023-04-01T15:00:04.024Z,12.10
2023-04-01T15:03:00.043Z,12.60
2023-04-01T15:05:38.320Z,13.00
2023-04-01T15:08:18.358Z,13.40
2023-04-01T15:11:25.572Z,13.80
2023-04-01T15:14:15.874Z,14.30
2023-04-01T15:16:50.952Z,14.50
2023-04-01T15:19:31.279Z,14.60
2023-04-01T15:22:32.238Z,14.80
2023-04-01T15:25:19.602Z,14.70
2023-04-01T15:27:53.870Z,14.80
2023-04-01T15:30:32.191Z,14.40
2023-04-01T15:33:16.517Z,14.40
2023-04-01T15:35:54.289Z,14.00
2023-04-01T15:38:33.112Z,14.40
2023-04-01T15:41:09.960Z,14.00
2023-04-01T15:43:44.857Z,13.40
2023-04-01T15:46:35.205Z,12.80
2023-04-01T15:49:11.229Z,12.90
2023-04-01T15:51:50.798Z,12.60
2023-04-01T15:55:03.157Z,12.50
2023-04-01T15:57:37.608Z,12.00
2023-04-01T16:00:27.772Z,11.90
2023-04-01T16:03:16.853Z,11.90
2023-04-01T16:06:03.112Z,11.80
2023-04-01T16:09:04.537Z,11.70
2023-04-01T16:11:45.585Z,11.70
2023-04-01T16:14:31.059Z,11.70
2023-04-01T16:17:18.137Z,12.20
2023-04-01T16:19:54.000Z,12.10
2023-04-01T16:22:28.088Z,12.30
2023-04-01T16:25:16.375Z,12.50
2023-04-01T16:27:54.821Z,12.90
2023-04-01T16:30:37.267Z,12.70
2023-04-01T16:33:10.817Z,12.40
2023-04-01T16:35:46.403Z,12.30
2023-04-01T16:38:21.511Z,12.30
2023-04-01T16:41:02.852Z,12.10
2023-04-01T16:43:40.172Z,11.90
2023-04-01T16:46:37.844Z,11.90
2023-04-01T16:49:29.864Z,11.80
2023-04-01T16:52:14.589Z,11.90
2023-04-01T16:54:48.160Z,11.80
2023-04-01T16:57:25.245Z,11.80
2023-04-01T17:00:01.950Z,11.70
2023-04-01T17:02:36.091Z,11.70
2023-04-01T17:05:08.763Z,11.50
2023-04-01T17:07:48.837Z,11.60
2023-04-01T17:10:31.244Z,11.80
2023-04-01T17:13:31.839Z,11.70
2023-04-01T17:16:28.838Z,11.70
2023-04-01T17:19:08.008Z,11.50
2023-04-01T17:21:52.895Z,11.60
2023-04-01T17:24:33.981Z,11.60
2023-04-01T17:27:12.532Z,11.60
2023-04-01T17:30:02.083Z,11.70
2023-04-01T17:32:44.017Z,11.70
2023-04-01T17:35:17.572Z,11.50
2023-04-01T17:37:56.838Z,11.50
2023-04-01T17:40:36.908Z,11.60
2023-04-01T17:43:15.676Z,11.40
2023-04-01T17:45:51.736Z,11.30
2023-04-01T17:48:34.238Z,11.10
2023-04-01T17:51:26.992Z,11.10
2023-04-01T17:54:06.613Z,11.10
2023-04-01T17:56:47.626Z,11.00
2023-04-01T17:59:24.194Z,10.80
2023-04-01T18:02:04.368Z,10.90
2023-04-01T18:05:03.842Z,10.80
2023-04-01T18:07:55.323Z,10.80
2023-04-01T18:10:36.691Z,10.60
2023-04-01T18:13:23.442Z,10.50
2023-04-01T18:16:02.124Z,10.60
2023-04-01T18:18:43.696Z,10.60
2023-04-01T18:21:21.124Z,10.50
2023-04-01T18:24:02.299Z,10.40
2023-04-01T18:26:33.966Z,10.30
2023-04-01T18:29:13.240Z,10.30
2023-04-01T18:31:46.832Z,10.30
2023-04-01T18:34:21.526Z,10.30
2023-04-01T18:36:54.133Z,10.10
2023-04-01T18:39:32.608Z,10.10
2023-04-01T18:42:10.590Z,10.10
2023-04-01T18:44:45.790Z,10.00
2023-04-01T18:47:27.079Z,10.00
2023-04-01T18:50:04.035Z,10.20
2023-04-01T18:52:38.279Z,10.20
2023-04-01T18:55:27.447Z,10.20
2023-04-01T18:58:00.949Z,10.10
2023-04-01T19:00:35.803Z,10.10
2023-04-01T19:03:13.185Z,10.00
2023-04-01T19:05:47.529Z,9.90
2023-04-01T19:08:28.758Z,9.90
2023-04-01T19:11:10.179Z,9.70
2023-04-01T19:13:51.612Z,9.60
2023-04-01T19:16:32.678Z,9.60
2023-04-01T19:19:21.805Z,9.50
2023-04-01T19:22:00.403Z,9.60
2023-04-01T19:25:01.964Z,9.70
2023-04-01T19:27:38.226Z,9.80
2023-04-01T19:30:24.183Z,9.80
2023-04-01T19:33:04.608Z,10.00
2023-04-01T19:35:43.149Z,9.90
2023-04-01T19:38:22.624Z,9.80
2023-04-01T19:40:56.066Z,9.80
2023-04-01T19:43:41.691Z,9.80
2023-04-01T19:46:18.915Z,9.70
2023-04-01T19:48:59.416Z,9.80
2023-04-01T19:51:33.827Z,9.70
2023-04-01T19:54:13.234Z,9.60
2023-04-01T19:56:48.014Z,9.70
2023-04-01T19:59:25.066Z,9.80
2023-04-01T20:02:00.867Z,9.80
2023-04-01T20:04:36.550Z,9.80
2023-04-01T20:07:14.897Z,9.80
2023-04-01T20:09:57.289Z,10.00
2023-04-01T20:12:40.715Z,9.80
2023-04-01T20:15:26.176Z,9.60
2023-04-01T20:17:56.024Z,9.40
2023-04-01T20:20:28.255Z,9.30
2023-04-01T20:23:09.940Z,9.30
2023-04-01T20:25:48.317Z,9.30
2023-04-01T20:28:24.073Z,9.30
2023-04-01T20:31:11.044Z,9.50
2023-04-01T20:34:10.278Z,9.50
2023-04-01T20:36:48.785Z,9.40
2023-04-01T20:39:42.940Z,9.30
2023-04-01T20:42:37.570Z,9.30
2023-04-01T20:45:22.765Z,9.30
2023-04-01T20:48:21.046Z,9.40
2023-04-01T20:50:53.087Z,9.40
2023-04-01T20:53:26.319Z,9.50
2023-04-01T20:56:09.142Z,9.40
2023-04-01T20:58:50.389Z,9.40
2023-04-01T21:01:28.315Z,9.60
2023-04-01T21:04:07.006Z,9.90
2023-04-01T21:07:07.580Z,9.90
2023-04-01T21:09:50.193Z,9.90
2023-04-01T21:12:30.823Z,9.90
2023-04-01T21:15:23.415Z,10.10
2023-04-01T21:18:07.023Z,10.00
2023-04-01T21:20:49.345Z,10.00
2023-04-01T21:23:44.556Z,10.00
2023-04-01T21:26:29.582Z,10.10
2023-04-01T21:29:21.342Z,10.10
2023-04-01T21:32:11.725Z,10.20
2023-04-01T21:34:53.003Z,10.10
2023-04-01T21:37:46.189Z,10.00
2023-04-01T21:40:45.654Z,9.90
2023-04-01T21:43:41.013Z,10.00
2023-04-01T21:46:50.527Z,10.00
2023-04-01T21:49:39.832Z,10.10
2023-04-01T21:52:36.640Z,10.10
2023-04-01T21:55:44.539Z,10.10
2023-04-01T21:59:02.699Z,10.00
2023-04-01T22:02:09.730Z,10.00
2023-04-01T22:05:00.429Z,9.90
2023-04-01T22:07:35.219Z,10.00
2023-04-01T22:10:12.957Z,10.00
2023-04-01T22:12:45.964Z,10.00
2023-04-01T22:15:26.545Z,9.90
2023-04-01T22:18:04.578Z,9.80
2023-04-01T22:20:47.276Z,9.70
2023-04-01T22:23:27.224Z,9.70
2023-04-01T22:26:03.671Z,9.70
2023-04-01T22:28:39.043Z,9.60
2023-04-01T22:31:12.361Z,9.50
2023-04-01T22:33:50.054Z,9.40
2023-04-01T22:36:27.537Z,9.50
2023-04-01T22:39:12.502Z,9.60
2023-04-01T22:41:54.737Z,9.60
2023-04-01T22:44:40.047Z,9.70
2023-04-01T22:47:18.387Z,9.60
2023-04-01T22:49:52.737Z,9.60
2023-04-01T22:52:33.074Z,9.60
2023-04-01T22:55:05.437Z,9.60
2023-04-01T22:57:40.970Z,9.50
2023-04-01T23:00:16.514Z,9.50
2023-04-01T23:02:49.779Z,9.40
2023-04-01T23:05:23.571Z,9.40
2023-04-01T23:08:05.941Z,9.40
2023-04-01T23:10:45.196Z,9.40
2023-04-01T23:13:20.265Z,9.40
2023-04-01T23:15:49.944Z,9.40
2023-04-01T23:18:26.864Z,9.40
2023-04-01T23:21:21.179Z,9.40
2023-04-01T23:24:05.024Z,9.40
2023-04-01T23:26:40.911Z,9.40
2023-04-01T23:29:19.433Z,9.40
2023-04-01T23:31:48.752Z,9.50
2023-04-01T23:34:43.077Z,9.40
2023-04-01T23:37:17.233Z,9.40
2023-04-01T23:39:50.671Z,9.50
2023-04-01T23:42:26.013Z,9.50
2023-04-01T23:44:57.614Z,9.50
2023-04-01T23:47:30.197Z,9.50
2023-04-01T23:50:03.140Z,9.50
2023-04-01T23:52:38.492Z,9.50
2023-04-01T23:55:22.333Z,9.60
2023-04-01T23:58:16.212Z,9.60
